Time;durP1;ratioP1;P1;durP2;ratioP2;P2;SDS_P1;SDS_P2;PMS_P1;PMS_P2;Temp;Humidity;BMP_temperature;BMP_pressure;BME280_temperature;BME280_humidity;BME280_pressure;Samples;Min_cycle;Max_cycle;Signal;HPM_P1;HPM_P2
2022/09/24 00:01:58;;;;;;;;;12.00;12.00;31.60;99.90;;;;;;4975156;28;8876;-61
2022/09/24 00:04:31;;;;;;;;;15.20;14.40;31.60;99.90;;;;;;4970210;28;8994;-65
2022/09/24 00:07:01;;;;;;;;;13.00;13.00;31.60;99.90;;;;;;4973538;28;8856;-64
2022/09/24 00:09:33;;;;;;;;;11.60;11.40;31.50;99.90;;;;;;4977290;28;8982;-65
2022/09/24 00:12:06;;;;;;;;;16.60;14.40;31.50;99.90;;;;;;4979977;28;8862;-64
2022/09/24 00:14:36;;;;;;;;;12.60;12.60;31.40;99.90;;;;;;4986996;28;8849;-65
2022/09/24 00:17:11;;;;;;;;;15.00;15.00;31.30;99.90;;;;;;4974742;28;9586;-65
2022/09/24 00:19:46;;;;;;;;;16.00;15.00;31.20;99.90;;;;;;4976353;28;8846;-63
2022/09/24 00:22:20;;;;;;;;;10.60;10.60;31.10;99.90;;;;;;4977769;28;9593;-63
2022/09/24 00:27:44;;;;;;;;;12.60;12.60;31.10;99.90;;;;;;4976264;28;8906;-64
2022/09/24 00:30:16;;;;;;;;;13.20;13.00;31.00;99.90;;;;;;4977227;28;8877;-65
2022/09/24 00:32:47;;;;;;;;;13.20;13.20;30.90;99.90;;;;;;4977106;28;8847;-64
2022/09/24 00:35:24;;;;;;;;;13.20;13.20;30.90;99.90;;;;;;4968798;28;9001;-65
2022/09/24 00:37:57;;;;;;;;;16.00;15.00;30.80;99.90;;;;;;4978667;28;8857;-64
2022/09/24 00:40:34;;;;;;;;;13.00;13.00;30.90;99.90;;;;;;4981969;28;9577;-65
2022/09/24 00:43:24;;;;;;;;;12.40;11.80;30.90;99.90;;;;;;4990941;28;8838;-64
2022/09/24 00:46:09;;;;;;;;;14.80;13.80;30.80;99.90;;;;;;4980181;28;8862;-64
2022/09/24 00:48:40;;;;;;;;;13.80;13.80;30.90;99.90;;;;;;4980570;28;8893;-64
2022/09/24 00:51:16;;;;;;;;;16.00;15.60;30.90;99.90;;;;;;4993939;28;8859;-65
2022/09/24 00:53:54;;;;;;;;;13.20;12.60;30.90;99.90;;;;;;4975933;28;8847;-65
2022/09/24 00:56:26;;;;;;;;;14.40;14.40;30.90;99.90;;;;;;4979405;28;8852;-65
2022/09/24 00:59:00;;;;;;;;;10.60;10.60;30.90;99.90;;;;;;4980108;28;8861;-64
2022/09/24 01:01:33;;;;;;;;;13.80;13.80;30.70;99.90;;;;;;4979205;28;8866;-65
2022/09/24 01:04:06;;;;;;;;;13.20;13.20;30.70;99.90;;;;;;4974623;28;9392;-65
2022/09/24 01:06:37;;;;;;;;;16.00;14.00;30.60;99.90;;;;;;4992291;28;8850;-64
2022/09/24 01:09:08;;;;;;;;;12.40;12.40;30.50;99.90;;;;;;4978604;28;8839;-65
2022/09/24 01:12:03;;;;;;;;;11.00;11.00;30.50;99.90;;;;;;4979618;28;8847;-65
2022/09/24 01:14:41;;;;;;;;;11.80;11.80;30.40;99.90;;;;;;4989303;28;8830;-64
2022/09/24 01:17:35;;;;;;;;;15.40;14.60;30.50;99.90;;;;;;4982787;28;8850;-64
2022/09/24 01:20:33;;;;;;;;;13.60;13.60;30.50;99.90;;;;;;4978208;28;9594;-64
2022/09/24 01:23:15;;;;;;;;;12.20;12.20;30.50;99.90;;;;;;4973959;28;8854;-64
2022/09/24 01:25:53;;;;;;;;;11.00;11.00;30.40;99.90;;;;;;4980610;28;8887;-66
2022/09/24 01:29:04;;;;;;;;;15.00;15.00;30.40;99.90;;;;;;4980533;28;9637;-64
2022/09/24 01:31:40;;;;;;;;;14.00;14.00;30.40;99.90;;;;;;4980942;28;8876;-66
2022/09/24 01:34:14;;;;;;;;;12.80;12.80;30.50;99.90;;;;;;4975549;28;8905;-66
2022/09/24 01:36:48;;;;;;;;;14.40;14.40;30.50;99.90;;;;;;4976477;28;8901;-65
2022/09/24 01:39:24;;;;;;;;;14.20;14.20;30.40;99.90;;;;;;4968121;28;8866;-65
2022/09/24 01:41:56;;;;;;;;;17.00;17.00;30.40;99.90;;;;;;4970324;28;8881;-64
2022/09/24 01:44:26;;;;;;;;;16.80;16.00;30.40;99.90;;;;;;4975871;28;8843;-65
2022/09/24 01:46:58;;;;;;;;;10.50;10.50;30.30;99.90;;;;;;4981489;28;8860;-63
2022/09/24 01:49:30;;;;;;;;;16.60;16.60;30.30;99.90;;;;;;4971260;28;8856;-65
2022/09/24 01:53:07;;;;;;;;;18.00;18.00;30.30;99.90;;;;;;5080788;27;13719;-65
2022/09/24 01:55:48;;;;;;;;;12.20;12.20;30.30;99.90;;;;;;5041856;28;9805;-64
2022/09/24 01:59:01;;;;;;;;;15.40;15.40;30.30;99.90;;;;;;5051887;28;8843;-63
2022/09/24 02:01:50;;;;;;;;;15.20;15.20;30.30;99.90;;;;;;5066492;28;8870;-65
2022/09/24 02:04:24;;;;;;;;;15.00;15.00;30.20;99.90;;;;;;5042073;28;9153;-64
2022/09/24 02:07:15;;;;;;;;;15.00;15.00;30.10;99.90;;;;;;5049498;28;8876;-65
2022/09/24 02:09:45;;;;;;;;;13.20;13.20;30.10;99.90;;;;;;5051795;28;8839;-65
2022/09/24 02:12:36;;;;;;;;;16.60;16.60;30.10;99.90;;;;;;5047001;28;8854;-64
2022/09/24 02:15:16;;;;;;;;;19.40;19.40;30.10;99.90;;;;;;5048084;28;9021;-64
2022/09/24 02:17:54;;;;;;;;;16.80;16.80;30.00;99.90;;;;;;5050091;28;8860;-64
2022/09/24 02:20:27;;;;;;;;;16.80;15.60;30.00;99.90;;;;;;5046930;27;8842;-64
2022/09/24 02:22:59;;;;;;;;;15.00;15.00;29.90;99.90;;;;;;5057632;28;8851;-62
2022/09/24 02:25:41;;;;;;;;;17.60;17.60;29.90;99.90;;;;;;5053120;28;8989;-63
2022/09/24 02:28:10;;;;;;;;;16.80;16.80;29.90;99.90;;;;;;5047100;28;8832;-63
2022/09/24 02:30:49;;;;;;;;;18.60;18.60;29.90;99.90;;;;;;5049836;28;8883;-63
2022/09/24 02:36:16;;;;;;;;;14.60;14.60;29.90;99.90;;;;;;5047400;28;8877;-63
2022/09/24 02:38:48;;;;;;;;;16.00;16.00;29.80;99.90;;;;;;5050136;27;8896;-63
2022/09/24 02:41:22;;;;;;;;;16.00;15.80;29.70;99.90;;;;;;5083490;28;8846;-63
2022/09/24 02:43:56;;;;;;;;;17.50;17.50;29.60;99.90;;;;;;5049511;28;9924;-62
2022/09/24 02:46:26;;;;;;;;;17.40;17.40;29.50;99.90;;;;;;5064100;28;8833;-62
2022/09/24 02:49:01;;;;;;;;;14.75;14.75;29.40;99.90;;;;;;5045402;28;8844;-62
2022/09/24 02:51:32;;;;;;;;;20.00;18.20;29.50;99.90;;;;;;5084343;28;8858;-63
2022/09/24 02:54:04;;;;;;;;;15.20;14.60;29.40;99.90;;;;;;5048018;28;8827;-59
2022/09/24 02:56:37;;;;;;;;;22.75;22.75;29.40;99.90;;;;;;5050645;28;8859;-58
2022/09/24 02:59:08;;;;;;;;;21.75;21.75;29.40;99.90;;;;;;5049997;28;8868;-60
2022/09/24 03:01:40;;;;;;;;;20.75;20.75;29.30;99.90;;;;;;5051179;28;8854;-60
2022/09/24 03:04:12;;;;;;;;;19.25;19.25;29.30;99.90;;;;;;5036686;28;8838;-59
2022/09/24 03:06:44;;;;;;;;;17.25;17.25;29.20;99.90;;;;;;5035365;28;8827;-62
2022/09/24 03:09:18;;;;;;;;;19.50;19.50;29.20;99.90;;;;;;5043678;28;8866;-57
2022/09/24 03:11:51;;;;;;;;;17.50;17.50;29.20;99.90;;;;;;5035108;28;8890;-59
2022/09/24 03:14:26;;;;;;;;;17.25;17.25;29.10;99.90;;;;;;5034918;28;9831;-61
2022/09/24 03:17:02;;;;;;;;;18.00;18.00;29.10;99.90;;;;;;5032540;28;8837;-60
2022/09/24 03:19:35;;;;;;;;;20.25;20.25;29.00;99.90;;;;;;5034487;28;8854;-60
2022/09/24 03:22:09;;;;;;;;;18.75;18.75;29.00;99.90;;;;;;5030885;28;8860;-61
2022/09/24 03:24:42;;;;;;;;;23.00;21.75;29.00;99.90;;;;;;5065269;28;8860;-61
2022/09/24 03:27:15;;;;;;;;;20.50;20.50;29.10;99.90;;;;;;5036392;28;8849;-64
2022/09/24 03:32:40;;;;;;;;;20.00;19.25;28.90;99.90;;;;;;5037367;28;8830;-59
2022/09/24 03:35:12;;;;;;;;;17.50;17.50;28.80;99.90;;;;;;5035897;28;8847;-62
2022/09/24 03:37:45;;;;;;;;;19.50;19.50;28.90;99.90;;;;;;5037352;28;8866;-61
2022/09/24 03:40:24;;;;;;;;;18.50;18.50;28.90;99.90;;;;;;5037043;28;8843;-59
2022/09/24 03:42:56;;;;;;;;;15.25;15.25;28.90;99.90;;;;;;5038148;28;8878;-59
2022/09/24 03:45:29;;;;;;;;;14.50;14.50;28.90;99.90;;;;;;5036605;28;8876;-59
2022/09/24 03:48:04;;;;;;;;;10.75;10.75;29.00;99.90;;;;;;5040135;28;8889;-60
2022/09/24 03:50:40;;;;;;;;;15.50;15.50;29.00;99.90;;;;;;5031581;28;8866;-66
2022/09/24 03:53:15;;;;;;;;;16.75;16.75;28.90;99.90;;;;;;5034002;28;8882;-66
2022/09/24 03:55:53;;;;;;;;;16.75;16.75;28.80;99.90;;;;;;5034501;28;8835;-68
2022/09/24 03:58:30;;;;;;;;;17.40;17.40;28.90;99.90;;;;;;5051492;28;8849;-61
2022/09/24 04:01:03;;;;;;;;;17.25;17.25;28.80;99.90;;;;;;5051738;28;8855;-60
2022/09/24 04:03:36;;;;;;;;;16.00;16.00;28.90;99.90;;;;;;5045233;28;8901;-61
2022/09/24 04:06:11;;;;;;;;;18.75;18.75;28.80;99.90;;;;;;5033830;28;8855;-66
2022/09/24 04:08:46;;;;;;;;;12.25;12.25;28.70;99.90;;;;;;5045971;28;8830;-68
2022/09/24 04:11:17;;;;;;;;;17.50;17.50;28.70;99.90;;;;;;5050145;28;8834;-68
2022/09/24 04:13:53;;;;;;;;;13.75;13.75;28.70;99.90;;;;;;5034587;27;8845;-66
2022/09/24 04:16:28;;;;;;;;;19.00;19.00;28.60;99.90;;;;;;5037050;28;8865;-64
2022/09/24 04:19:01;;;;;;;;;19.50;19.50;28.50;99.90;;;;;;5034940;28;8831;-64
2022/09/24 04:21:36;;;;;;;;;15.75;15.75;28.50;99.90;;;;;;5048826;28;8843;-65
2022/09/24 04:24:12;;;;;;;;;14.50;14.50;28.50;99.90;;;;;;5038561;28;8849;-66
2022/09/24 04:26:47;;;;;;;;;20.00;20.00;28.50;99.90;;;;;;5040236;28;8871;-68
2022/09/24 04:29:18;;;;;;;;;19.50;18.75;28.40;99.90;;;;;;5036408;28;8884;-60
2022/09/24 04:31:54;;;;;;;;;19.00;19.00;28.50;99.90;;;;;;5045861;28;8878;-61
2022/09/24 04:34:27;;;;;;;;;21.50;21.50;28.50;99.90;;;;;;5037365;28;8869;-66
2022/09/24 04:37:04;;;;;;;;;17.00;17.00;28.40;99.90;;;;;;5019922;28;9651;-66
2022/09/24 04:39:41;;;;;;;;;20.50;20.50;28.40;99.90;;;;;;5037357;28;8849;-65
2022/09/24 04:42:20;;;;;;;;;18.00;18.00;28.40;99.90;;;;;;5040310;28;8865;-66
2022/09/24 04:44:52;;;;;;;;;20.25;20.25;28.20;99.90;;;;;;5064786;28;8855;-66
2022/09/24 04:47:26;;;;;;;;;19.25;18.00;28.20;99.90;;;;;;5031163;28;8902;-65
2022/09/24 04:50:01;;;;;;;;;21.50;21.50;28.20;99.90;;;;;;5030547;28;8869;-61
2022/09/24 04:52:37;;;;;;;;;19.00;17.75;28.10;99.90;;;;;;4992045;28;8886;-61
2022/09/24 04:55:08;;;;;;;;;20.00;20.00;28.10;99.90;;;;;;4991727;28;8862;-62
2022/09/24 04:57:44;;;;;;;;;19.75;19.75;28.00;99.90;;;;;;4996835;28;8840;-62
2022/09/24 05:00:17;;;;;;;;;19.25;19.25;28.10;99.90;;;;;;4993967;28;8863;-65
2022/09/24 05:02:58;;;;;;;;;19.50;19.50;28.00;99.90;;;;;;5001425;28;8845;-66
2022/09/24 05:05:29;;;;;;;;;19.00;19.00;28.00;99.90;;;;;;4992405;28;8895;-67
2022/09/24 05:08:05;;;;;;;;;15.50;15.00;28.00;99.90;;;;;;5008679;28;8844;-67
2022/09/24 05:10:34;;;;;;;;;17.75;17.75;28.00;99.90;;;;;;5022113;28;8869;-67
2022/09/24 05:13:07;;;;;;;;;19.50;19.50;27.90;99.90;;;;;;4998670;28;8872;-66
2022/09/24 05:15:37;;;;;;;;;18.75;18.75;27.80;99.90;;;;;;4991188;28;8843;-68
2022/09/24 05:18:13;;;;;;;;;18.00;18.00;27.80;99.90;;;;;;4995420;28;8855;-67
2022/09/24 05:20:43;;;;;;;;;19.50;19.50;27.80;99.90;;;;;;5025011;28;9203;-61
2022/09/24 05:23:13;;;;;;;;;22.00;22.00;27.70;99.90;;;;;;5006776;28;8884;-63
2022/09/24 05:28:32;;;;;;;;;18.00;18.00;27.70;99.90;;;;;;4999777;28;8852;-67
2022/09/24 05:31:01;;;;;;;;;17.75;17.75;27.70;99.90;;;;;;4994197;28;8868;-67
2022/09/24 05:33:32;;;;;;;;;18.50;18.50;27.70;99.90;;;;;;5027353;28;8898;-67
2022/09/24 05:36:03;;;;;;;;;17.33;17.33;27.60;99.90;;;;;;4997675;28;8839;-67
2022/09/24 05:38:35;;;;;;;;;16.00;16.00;27.60;99.90;;;;;;4997286;28;8852;-60
2022/09/24 05:41:10;;;;;;;;;19.00;19.00;27.60;99.90;;;;;;4997521;28;8952;-62
2022/09/24 05:43:40;;;;;;;;;16.75;16.75;27.60;99.90;;;;;;4997414;28;8859;-67
2022/09/24 05:46:12;;;;;;;;;18.75;18.75;27.50;99.90;;;;;;4997796;28;8876;-68
2022/09/24 05:48:45;;;;;;;;;20.00;20.00;27.50;99.90;;;;;;4998714;28;8832;-61
2022/09/24 05:51:18;;;;;;;;;20.25;20.25;27.60;99.90;;;;;;5011989;28;8873;-62
2022/09/24 05:53:49;;;;;;;;;17.75;17.75;27.40;99.90;;;;;;5037502;28;8854;-61
2022/09/24 05:56:19;;;;;;;;;20.50;20.50;27.50;99.90;;;;;;5050422;28;8861;-61
2022/09/24 05:58:49;;;;;;;;;18.75;18.75;27.30;99.90;;;;;;5046435;28;8842;-67
2022/09/24 06:01:19;;;;;;;;;20.75;20.75;27.40;99.90;;;;;;5039911;28;8827;-67
2022/09/24 06:03:50;;;;;;;;;21.75;21.75;27.30;99.90;;;;;;5029540;28;8885;-62
2022/09/24 06:06:24;;;;;;;;;18.00;18.00;27.30;99.90;;;;;;5039460;28;8829;-62
2022/09/24 06:08:56;;;;;;;;;19.50;18.50;27.30;99.90;;;;;;5031350;28;8829;-62
2022/09/24 06:11:28;;;;;;;;;16.50;16.50;27.30;99.90;;;;;;5038428;28;8895;-61
2022/09/24 06:14:04;;;;;;;;;20.00;20.00;27.20;99.90;;;;;;5033271;28;8869;-62
2022/09/24 06:16:34;;;;;;;;;21.25;21.25;27.10;99.90;;;;;;5034819;28;8811;-60
2022/09/24 06:19:12;;;;;;;;;20.25;20.25;27.20;99.90;;;;;;5034167;28;8857;-61
2022/09/24 06:21:42;;;;;;;;;18.00;18.00;27.20;99.90;;;;;;5051749;28;8855;-60
2022/09/24 06:24:15;;;;;;;;;14.25;14.25;27.10;99.90;;;;;;5033974;28;8885;-61
2022/09/24 06:26:47;;;;;;;;;18.50;18.50;27.00;99.90;;;;;;5034138;28;8843;-63
2022/09/24 06:29:17;;;;;;;;;18.50;18.50;27.00;99.90;;;;;;5049849;28;8847;-61
2022/09/24 06:31:48;;;;;;;;;18.50;18.50;27.00;99.90;;;;;;5052336;28;8867;-61
2022/09/24 06:34:20;;;;;;;;;17.50;17.50;27.00;99.90;;;;;;5051074;28;8833;-67
2022/09/24 06:36:54;;;;;;;;;22.25;20.00;26.80;99.90;;;;;;5035080;28;8871;-67
2022/09/24 06:39:25;;;;;;;;;19.75;18.75;26.90;99.90;;;;;;5040436;28;9009;-66
2022/09/24 06:41:57;;;;;;;;;14.00;14.00;26.80;99.90;;;;;;5007164;28;9670;-65
2022/09/24 06:44:36;;;;;;;;;19.00;19.00;26.90;99.90;;;;;;5038547;28;8855;-68
2022/09/24 06:47:06;;;;;;;;;19.00;19.00;26.80;99.90;;;;;;5041797;28;8854;-68
2022/09/24 06:49:36;;;;;;;;;18.50;16.75;26.80;99.90;;;;;;5032481;28;9654;-61
2022/09/24 06:52:07;;;;;;;;;20.25;20.25;26.80;99.90;;;;;;5038894;28;8854;-61
2022/09/24 06:54:37;;;;;;;;;20.00;20.00;26.80;99.90;;;;;;5039584;28;8874;-62
2022/09/24 06:57:10;;;;;;;;;17.25;17.25;26.70;99.90;;;;;;5069418;28;8821;-62
2022/09/24 06:59:40;;;;;;;;;20.00;20.00;26.60;99.90;;;;;;5056796;28;8881;-67
2022/09/24 07:02:10;;;;;;;;;19.25;19.25;26.60;99.90;;;;;;5042273;28;8843;-67
2022/09/24 07:04:42;;;;;;;;;18.00;18.00;26.60;99.90;;;;;;5041448;28;8915;-67
2022/09/24 07:07:28;;;;;;;;;18.25;18.25;26.60;99.90;;;;;;5019750;28;8846;-68
2022/09/24 07:10:00;;;;;;;;;19.25;19.25;26.60;99.90;;;;;;5038122;28;8849;-62
2022/09/24 07:12:35;;;;;;;;;18.00;18.00;26.60;99.90;;;;;;5051719;28;9666;-62
2022/09/24 07:15:06;;;;;;;;;16.50;16.50;26.50;99.90;;;;;;5038828;28;8848;-69
2022/09/24 07:17:36;;;;;;;;;13.75;13.75;26.50;99.90;;;;;;5037021;28;8833;-68
2022/09/24 07:20:08;;;;;;;;;19.50;19.50;26.50;99.90;;;;;;5035894;28;8874;-67
2022/09/24 07:22:39;;;;;;;;;21.75;21.75;26.40;99.90;;;;;;5033882;28;8834;-68
2022/09/24 07:25:11;;;;;;;;;18.50;18.50;26.40;99.90;;;;;;5071520;28;8877;-62
2022/09/24 07:27:44;;;;;;;;;20.50;20.50;26.40;99.90;;;;;;5034502;28;8835;-62
2022/09/24 07:30:15;;;;;;;;;19.25;19.25;26.40;99.90;;;;;;5039095;28;8835;-68
2022/09/24 07:32:49;;;;;;;;;18.25;18.25;26.40;99.90;;;;;;5039107;28;8862;-67
2022/09/24 07:35:21;;;;;;;;;20.25;19.25;26.40;99.90;;;;;;5038020;28;8811;-61
2022/09/24 07:38:01;;;;;;;;;16.25;16.25;26.30;99.90;;;;;;5033267;28;8873;-61
2022/09/24 07:40:32;;;;;;;;;21.25;21.25;26.20;99.90;;;;;;5040995;28;8834;-62
2022/09/24 07:43:05;;;;;;;;;20.00;20.00;26.30;99.90;;;;;;5051633;28;9955;-62
2022/09/24 07:45:35;;;;;;;;;17.00;17.00;26.20;99.90;;;;;;5068654;28;9805;-60
2022/09/24 07:48:08;;;;;;;;;20.00;20.00;26.20;99.90;;;;;;5037533;28;8861;-62
2022/09/24 07:50:40;;;;;;;;;18.75;18.00;26.10;99.90;;;;;;5029512;28;8851;-60
2022/09/24 07:53:11;;;;;;;;;18.00;18.00;26.00;99.90;;;;;;5038070;28;8855;-62
2022/09/24 07:55:45;;;;;;;;;16.50;16.50;26.00;99.90;;;;;;5035923;28;8854;-62
2022/09/24 07:58:14;;;;;;;;;22.00;22.00;25.90;99.90;;;;;;5034562;28;8852;-62
2022/09/24 08:00:47;;;;;;;;;18.25;18.25;25.80;99.90;;;;;;5042206;28;8826;-67
2022/09/24 08:03:16;;;;;;;;;18.00;18.00;25.90;99.90;;;;;;5030069;28;8894;-68
2022/09/24 08:05:47;;;;;;;;;15.50;15.50;25.90;99.90;;;;;;5033169;28;8857;-61
2022/09/24 08:08:19;;;;;;;;;14.75;14.75;25.80;99.90;;;;;;5035847;28;8875;-62
2022/09/24 08:10:53;;;;;;;;;17.75;17.75;25.80;99.90;;;;;;5033637;28;8889;-60
2022/09/24 08:13:24;;;;;;;;;14.00;14.00;25.80;99.90;;;;;;5037407;28;8846;-62
2022/09/24 08:15:59;;;;;;;;;18.50;18.50;25.80;99.90;;;;;;5036560;28;8836;-61
2022/09/24 08:18:30;;;;;;;;;16.25;16.25;25.80;99.90;;;;;;5038094;28;8854;-67
2022/09/24 08:21:10;;;;;;;;;16.75;16.75;25.60;99.90;;;;;;5037274;28;8831;-67
2022/09/24 08:23:43;;;;;;;;;15.00;15.00;25.60;99.90;;;;;;5037226;28;8875;-62
2022/09/24 08:26:14;;;;;;;;;16.25;16.25;25.50;99.90;;;;;;5049442;28;8835;-62
2022/09/24 08:28:50;;;;;;;;;16.00;16.00;25.50;99.90;;;;;;5045735;28;8846;-62
2022/09/24 08:31:20;;;;;;;;;17.75;17.75;25.40;99.90;;;;;;5045286;28;8854;-62
2022/09/24 08:33:52;;;;;;;;;17.75;17.75;25.30;99.90;;;;;;5035941;28;8826;-62
2022/09/24 08:36:21;;;;;;;;;16.25;16.25;25.30;99.90;;;;;;5065157;28;8834;-60
2022/09/24 08:38:54;;;;;;;;;17.50;17.50;25.30;99.90;;;;;;5018763;28;8857;-67
2022/09/24 08:41:50;;;;;;;;;18.25;18.25;25.30;99.90;;;;;;5033689;28;8885;-67
2022/09/24 08:47:57;;;;;;;;;15.00;15.00;25.10;99.90;;;;;;5026425;28;8842;-61
2022/09/24 08:50:33;;;;;;;;;17.75;15.75;25.10;99.90;;;;;;5033738;28;8877;-67
2022/09/24 08:53:18;;;;;;;;;16.50;16.50;25.10;99.90;;;;;;5035953;28;8843;-67
2022/09/24 08:56:00;;;;;;;;;14.00;14.00;25.00;99.90;;;;;;5031817;28;8842;-63
2022/09/24 08:58:53;;;;;;;;;17.50;17.50;24.80;99.90;;;;;;5034382;28;8881;-64
2022/09/24 09:01:31;;;;;;;;;17.50;17.50;24.80;99.90;;;;;;5030144;28;8859;-63
2022/09/24 09:04:23;;;;;;;;;16.00;16.00;24.80;99.90;;;;;;5027342;28;8839;-61
2022/09/24 09:07:02;;;;;;;;;13.75;13.75;24.80;99.90;;;;;;5014108;28;9588;-62
2022/09/24 09:09:45;;;;;;;;;15.00;15.00;24.70;99.90;;;;;;5048823;28;9963;-68
2022/09/24 09:12:25;;;;;;;;;15.00;15.00;24.70;99.90;;;;;;5034539;28;8827;-68
2022/09/24 09:15:05;;;;;;;;;17.75;17.75;24.60;99.90;;;;;;5046992;28;8871;-68
2022/09/24 09:17:50;;;;;;;;;15.75;15.75;24.60;99.90;;;;;;5034780;28;9143;-69
2022/09/24 09:20:34;;;;;;;;;15.25;15.25;24.50;99.90;;;;;;5043703;28;8858;-62
2022/09/24 09:23:36;;;;;;;;;15.25;15.25;24.50;99.90;;;;;;5033314;28;8848;-62
2022/09/24 09:26:11;;;;;;;;;16.25;16.25;24.40;99.90;;;;;;5039994;28;8844;-62
2022/09/24 09:28:42;;;;;;;;;13.00;12.25;24.30;99.90;;;;;;5028306;28;8831;-67
2022/09/24 09:31:18;;;;;;;;;17.50;17.50;24.30;99.90;;;;;;5033405;28;8865;-67
2022/09/24 09:34:07;;;;;;;;;16.25;16.25;24.40;99.90;;;;;;5047952;28;8985;-62
2022/09/24 09:37:00;;;;;;;;;16.75;16.75;24.40;99.90;;;;;;5028443;28;8860;-62
2022/09/24 09:39:32;;;;;;;;;13.25;13.25;24.20;99.90;;;;;;5048192;28;9628;-68
2022/09/24 09:42:28;;;;;;;;;15.50;15.50;24.30;99.90;;;;;;5034428;28;8823;-67
2022/09/24 09:45:08;;;;;;;;;15.00;15.00;24.30;99.90;;;;;;5029202;28;8881;-61
2022/09/24 09:47:58;;;;;;;;;16.50;16.50;24.20;99.90;;;;;;5038561;28;9554;-62
2022/09/24 09:50:44;;;;;;;;;12.50;12.50;24.20;99.90;;;;;;5033980;28;8858;-67
2022/09/24 09:53:30;;;;;;;;;15.00;15.00;24.10;99.90;;;;;;5028759;28;9874;-67
2022/09/24 09:56:04;;;;;;;;;16.25;16.25;24.10;99.90;;;;;;5030803;28;8946;-67
2022/09/24 09:58:51;;;;;;;;;15.50;15.50;24.10;99.90;;;;;;5032635;28;8862;-67
2022/09/24 10:01:33;;;;;;;;;17.50;17.50;24.00;99.90;;;;;;5030159;28;8898;-66
2022/09/24 10:04:06;;;;;;;;;17.75;17.75;24.10;99.90;;;;;;5034621;28;8842;-68
2022/09/24 10:06:38;;;;;;;;;17.00;17.00;24.10;99.90;;;;;;5034504;28;8866;-67
2022/09/24 10:09:21;;;;;;;;;17.50;17.50;24.10;99.90;;;;;;5034063;28;8827;-68
2022/09/24 10:11:52;;;;;;;;;16.75;16.75;24.10;99.90;;;;;;5033350;28;8842;-67
2022/09/24 10:14:23;;;;;;;;;15.25;15.25;24.10;99.90;;;;;;5035089;28;8851;-67
2022/09/24 10:17:04;;;;;;;;;17.50;17.50;24.10;99.90;;;;;;5038793;28;8861;-68
2022/09/24 10:19:37;;;;;;;;;18.75;18.75;24.10;99.90;;;;;;5037581;28;8853;-67
2022/09/24 10:22:19;;;;;;;;;18.00;18.00;24.00;99.90;;;;;;5034517;28;8845;-68
2022/09/24 10:24:51;;;;;;;;;15.25;15.25;24.10;99.90;;;;;;5066498;28;8923;-62
2022/09/24 10:27:36;;;;;;;;;15.50;15.50;24.00;99.90;;;;;;5036108;28;8867;-62
2022/09/24 10:30:32;;;;;;;;;16.00;16.00;23.80;99.90;;;;;;5037870;28;8819;-68
2022/09/24 10:33:09;;;;;;;;;12.25;12.25;23.90;99.90;;;;;;5052967;28;8853;-68
2022/09/24 10:35:38;;;;;;;;;18.00;18.00;23.90;99.90;;;;;;5034432;28;8850;-68
2022/09/24 10:38:26;;;;;;;;;14.00;14.00;23.90;99.90;;;;;;5040301;28;9687;-68
2022/09/24 10:40:57;;;;;;;;;16.50;16.50;23.90;99.90;;;;;;5035808;28;9580;-68
2022/09/24 10:43:30;;;;;;;;;17.00;17.00;23.90;99.90;;;;;;5042827;28;8829;-62
2022/09/24 10:46:32;;;;;;;;;17.25;17.25;23.80;99.90;;;;;;5048672;28;8907;-61
2022/09/24 10:49:29;;;;;;;;;13.75;13.75;23.70;99.90;;;;;;5023712;28;8874;-63
2022/09/24 10:52:11;;;;;;;;;18.75;18.75;23.80;99.90;;;;;;5035441;28;8831;-62
2022/09/24 10:54:55;;;;;;;;;20.25;18.75;23.70;99.90;;;;;;5036952;28;8888;-68
2022/09/24 10:57:33;;;;;;;;;16.00;16.00;23.60;99.90;;;;;;5051114;28;8847;-68
2022/09/24 11:00:18;;;;;;;;;16.25;16.25;23.50;99.90;;;;;;5035659;28;10273;-69
2022/09/24 11:03:41;;;;;;;;;17.50;17.50;23.50;99.90;;;;;;5034623;28;8843;-67
2022/09/24 11:06:33;;;;;;;;;17.50;17.50;23.50;99.90;;;;;;5036079;28;8846;-62
2022/09/24 11:09:36;;;;;;;;;15.00;15.00;23.50;99.90;;;;;;5035539;28;8847;-68
2022/09/24 11:12:22;;;;;;;;;15.50;15.50;23.60;99.90;;;;;;5037851;28;8795;-68
2022/09/24 11:15:18;;;;;;;;;16.00;16.00;23.70;99.90;;;;;;5041279;28;8835;-67
2022/09/24 11:18:01;;;;;;;;;16.25;16.25;23.70;99.90;;;;;;5039947;28;8885;-67
2022/09/24 11:20:38;;;;;;;;;13.75;13.75;23.50;99.90;;;;;;5033455;28;8869;-68
2022/09/24 11:23:27;;;;;;;;;16.00;16.00;23.50;99.90;;;;;;5037848;28;8863;-68
2022/09/24 11:26:25;;;;;;;;;16.00;16.00;23.50;99.90;;;;;;5065213;28;8862;-62
2022/09/24 11:29:33;;;;;;;;;15.00;15.00;23.60;99.90;;;;;;5050444;28;8839;-68
2022/09/24 11:32:31;;;;;;;;;16.00;16.00;23.50;99.90;;;;;;5037523;28;8861;-69
2022/09/24 11:35:20;;;;;;;;;16.75;16.75;23.40;99.90;;;;;;5038646;28;8880;-69
2022/09/24 11:38:09;;;;;;;;;15.75;15.75;23.40;99.90;;;;;;5038490;28;9939;-68
2022/09/24 11:40:46;;;;;;;;;16.00;16.00;23.40;99.90;;;;;;5053371;28;8880;-68
2022/09/24 11:43:20;;;;;;;;;16.75;16.75;23.20;99.90;;;;;;5049008;28;9591;-67
2022/09/24 11:45:59;;;;;;;;;15.00;15.00;23.40;99.90;;;;;;5035890;28;8875;-68
2022/09/24 11:48:45;;;;;;;;;13.25;13.25;23.20;99.90;;;;;;5033479;28;9620;-63
2022/09/24 11:51:36;;;;;;;;;15.25;15.25;23.20;99.90;;;;;;5030523;28;9476;-62
2022/09/24 11:54:24;;;;;;;;;16.50;16.50;23.10;99.90;;;;;;5037135;28;8886;-62
2022/09/24 11:57:02;;;;;;;;;15.25;15.25;23.10;99.90;;;;;;5035498;28;8853;-62
2022/09/24 11:59:37;;;;;;;;;15.50;15.50;23.10;99.90;;;;;;5031395;28;8831;-63
2022/09/24 12:02:27;;;;;;;;;17.25;17.25;23.00;99.90;;;;;;5033815;28;8830;-62
2022/09/24 12:05:18;;;;;;;;;13.00;13.00;22.90;99.90;;;;;;5035040;28;8839;-62
2022/09/24 12:08:09;;;;;;;;;14.75;14.75;22.90;99.90;;;;;;5051390;28;8831;-62
2022/09/24 12:10:48;;;;;;;;;17.00;17.00;22.80;99.90;;;;;;5037269;28;8832;-67
2022/09/24 12:13:30;;;;;;;;;15.25;15.25;22.90;99.90;;;;;;5036283;28;8827;-69
2022/09/24 12:16:20;;;;;;;;;13.75;13.75;22.90;99.90;;;;;;5037537;28;8848;-62
2022/09/24 12:18:56;;;;;;;;;15.00;15.00;22.90;99.90;;;;;;5033948;28;8856;-62
2022/09/24 12:21:39;;;;;;;;;17.50;17.50;22.90;99.90;;;;;;5040356;28;8872;-62
2022/09/24 12:24:32;;;;;;;;;17.50;17.50;23.00;99.90;;;;;;5061411;28;8869;-62
2022/09/24 12:27:11;;;;;;;;;17.75;17.75;23.00;99.90;;;;;;5035176;28;8862;-62
2022/09/24 12:33:07;;;;;;;;;16.25;14.50;22.80;99.90;;;;;;5035280;28;8868;-68
2022/09/24 12:35:48;;;;;;;;;18.50;18.50;22.70;99.90;;;;;;5044619;28;8861;-63
2022/09/24 12:38:28;;;;;;;;;17.75;17.75;22.70;99.90;;;;;;5034006;28;8845;-62
2022/09/24 12:41:23;;;;;;;;;16.25;16.25;22.80;99.90;;;;;;5035873;28;8846;-63
2022/09/24 12:44:27;;;;;;;;;16.25;16.25;22.80;99.90;;;;;;5036358;28;8839;-68
2022/09/24 12:46:59;;;;;;;;;12.75;12.75;22.70;99.90;;;;;;5034012;28;9877;-68
2022/09/24 12:49:34;;;;;;;;;16.00;16.00;22.70;99.90;;;;;;5062428;28;8905;-68
2022/09/24 12:52:25;;;;;;;;;16.50;16.50;22.70;99.90;;;;;;5031730;28;8862;-68
2022/09/24 12:55:04;;;;;;;;;14.50;14.50;22.80;99.90;;;;;;5035911;28;8831;-62
2022/09/24 12:57:41;;;;;;;;;16.25;16.25;23.00;99.90;;;;;;5037335;28;8882;-62
2022/09/24 13:00:56;;;;;;;;;21.75;21.00;22.90;99.90;;;;;;5032803;28;8846;-68
2022/09/24 13:03:35;;;;;;;;;17.25;17.25;22.90;99.90;;;;;;5056051;28;8846;-68
2022/09/24 13:06:35;;;;;;;;;17.50;17.50;23.00;99.90;;;;;;5040006;28;8836;-68
2022/09/24 13:09:35;;;;;;;;;14.50;14.50;23.10;99.90;;;;;;5036740;28;8936;-63
2022/09/24 13:12:17;;;;;;;;;15.50;15.50;23.10;99.90;;;;;;5034362;28;8838;-62
2022/09/24 13:15:01;;;;;;;;;16.75;16.75;23.30;99.90;;;;;;5034350;28;8873;-62
2022/09/24 13:17:34;;;;;;;;;12.50;12.50;23.40;99.90;;;;;;5059097;28;8951;-62
2022/09/24 13:20:22;;;;;;;;;14.50;14.50;23.40;99.90;;;;;;5036512;28;9603;-69
2022/09/24 13:23:19;;;;;;;;;17.25;17.25;23.50;99.90;;;;;;5035067;28;8871;-68
2022/09/24 13:26:05;;;;;;;;;14.25;14.25;23.60;99.90;;;;;;5032866;28;8859;-62
2022/09/24 13:28:50;;;;;;;;;17.00;17.00;23.70;99.90;;;;;;5046909;28;8821;-69
2022/09/24 13:31:30;;;;;;;;;16.00;16.00;23.80;99.90;;;;;;5031941;28;8843;-68
2022/09/24 13:34:10;;;;;;;;;16.75;16.75;23.90;99.90;;;;;;5030399;28;8895;-63
2022/09/24 13:37:05;;;;;;;;;14.00;14.00;23.90;99.90;;;;;;5032818;28;8850;-63
2022/09/24 13:39:55;;;;;;;;;15.25;15.25;24.00;99.90;;;;;;5032070;28;8846;-62
2022/09/24 13:42:31;;;;;;;;;15.75;15.75;24.10;99.90;;;;;;5048893;28;8858;-62
2022/09/24 13:45:15;;;;;;;;;15.25;15.25;24.20;99.90;;;;;;5032854;28;8863;-63
2022/09/24 13:48:05;;;;;;;;;15.00;15.00;24.30;99.90;;;;;;5033807;28;9565;-62
2022/09/24 13:50:44;;;;;;;;;15.00;15.00;24.30;99.90;;;;;;5033012;28;8865;-69